Time;durP1;ratioP1;P1;durP2;ratioP2;P2;SDS_P1;SDS_P2;PMS_P1;PMS_P2;Temp;Humidity;BMP_temperature;BMP_pressure;BME280_temperature;BME280_humidity;BME280_pressure;Samples;Min_cycle;Max_cycle;Signal;HPM_P1;HPM_P2
2022/05/01 00:02:05;;;;;;;4.22;3.83;;;20.30;59.20;;;;;;5011029;28;20223;-69
2022/05/01 00:04:31;;;;;;;3.55;3.17;;;20.20;59.10;;;;;;5011213;28;20196;-69
2022/05/01 00:06:57;;;;;;;2.47;2.30;;;20.30;59.20;;;;;;5010850;28;20292;-69
2022/05/01 00:09:23;;;;;;;3.63;2.58;;;20.20;59.20;;;;;;5011531;28;20184;-70
2022/05/01 00:11:49;;;;;;;2.83;2.20;;;20.20;59.10;;;;;;4994855;28;20222;-69
2022/05/01 00:14:17;;;;;;;2.33;2.13;;;20.30;59.20;;;;;;5011188;28;20207;-69
2022/05/01 00:16:43;;;;;;;2.20;2.10;;;20.30;59.20;;;;;;5012094;28;20276;-69
2022/05/01 00:19:09;;;;;;;1.98;1.88;;;20.20;59.10;;;;;;4994501;28;20194;-69
2022/05/01 00:21:36;;;;;;;2.65;2.45;;;20.20;59.10;;;;;;5011208;28;20208;-69
2022/05/01 00:24:06;;;;;;;2.10;2.00;;;20.30;59.20;;;;;;5010801;28;20192;-69
2022/05/01 00:26:32;;;;;;;2.30;2.10;;;20.20;59.10;;;;;;5011966;28;20719;-68
2022/05/01 00:29:01;;;;;;;2.40;2.20;;;20.20;59.00;;;;;;4994631;28;20185;-69
2022/05/01 00:31:27;;;;;;;2.72;2.50;;;20.20;59.00;;;;;;5010907;28;20287;-69
2022/05/01 00:36:37;;;;;;;3.75;3.45;;;20.20;59.00;;;;;;5010883;28;20551;-69
2022/05/01 00:39:06;;;;;;;4.00;3.70;;;20.20;59.60;;;;;;4994593;28;20194;-69
2022/05/01 00:41:39;;;;;;;3.78;3.47;;;20.20;59.00;;;;;;5011191;28;20244;-68
2022/05/01 00:44:13;;;;;;;4.22;3.83;;;20.20;59.00;;;;;;5010830;28;20286;-68
2022/05/01 00:46:50;;;;;;;3.30;3.00;;;20.20;58.90;;;;;;4996001;28;20314;-68
2022/05/01 00:49:25;;;;;;;2.40;2.20;;;20.20;58.90;;;;;;5015488;28;20255;-68
2022/05/01 00:51:57;;;;;;;2.25;2.15;;;20.20;59.00;;;;;;4998121;28;20555;-69
2022/05/01 00:54:28;;;;;;;2.00;1.90;;;20.20;58.90;;;;;;5015517;28;20195;-69
2022/05/01 00:56:58;;;;;;;2.30;2.10;;;20.20;59.00;;;;;;4997695;28;20246;-68
2022/05/01 00:59:26;;;;;;;2.10;2.00;;;20.20;58.90;;;;;;5014249;28;20188;-68
2022/05/01 01:01:52;;;;;;;2.38;2.17;;;20.20;58.90;;;;;;5014026;28;20219;-68
2022/05/01 01:04:18;;;;;;;2.60;2.40;;;20.20;58.90;;;;;;5014092;28;20261;-68
2022/05/01 01:06:45;;;;;;;3.10;2.90;;;20.20;58.90;;;;;;4997411;28;20219;-69
2022/05/01 01:09:12;;;;;;;3.65;3.17;;;20.20;58.90;;;;;;5014336;28;20238;-68
2022/05/01 01:11:39;;;;;;;3.90;3.60;;;20.20;58.90;;;;;;5014180;28;20204;-68
2022/05/01 01:14:06;;;;;;;3.47;3.28;;;20.20;58.80;;;;;;5015071;28;20554;-69
2022/05/01 01:16:34;;;;;;;4.05;3.75;;;20.20;58.90;;;;;;4997409;28;20237;-69
2022/05/01 01:19:01;;;;;;;4.28;3.90;;;20.20;58.80;;;;;;5013719;28;20188;-69
2022/05/01 01:21:27;;;;;;;5.18;3.72;;;20.20;58.90;;;;;;4997513;28;20215;-69
2022/05/01 01:23:54;;;;;;;3.72;3.40;;;20.10;58.70;;;;;;4997761;28;20240;-68
2022/05/01 01:26:21;;;;;;;2.80;2.60;;;20.20;58.80;;;;;;4997117;28;20176;-69
2022/05/01 01:28:48;;;;;;;2.47;2.28;;;20.20;58.80;;;;;;4997263;28;20187;-69
2022/05/01 01:34:08;;;;;;;2.40;2.20;;;20.20;58.80;;;;;;4993822;28;20652;-69
2022/05/01 01:36:37;;;;;;;2.22;2.10;;;20.10;58.70;;;;;;4977497;28;20610;-68
2022/05/01 01:39:05;;;;;;;2.30;2.10;;;20.20;58.80;;;;;;4977891;28;20699;-69
2022/05/01 01:41:32;;;;;;;2.55;2.35;;;20.20;58.80;;;;;;4994068;28;20208;-69
2022/05/01 01:43:59;;;;;;;3.25;2.80;;;20.20;58.70;;;;;;4977512;28;20699;-69
2022/05/01 01:46:25;;;;;;;3.03;2.83;;;20.20;58.70;;;;;;4977096;28;20221;-69
2022/05/01 01:48:52;;;;;;;4.22;3.83;;;20.20;58.70;;;;;;4994816;28;20188;-69
2022/05/01 01:51:18;;;;;;;3.38;3.15;;;20.20;58.70;;;;;;4977244;28;20211;-68
2022/05/01 01:53:45;;;;;;;3.85;3.55;;;20.10;58.60;;;;;;4993670;28;20179;-69
2022/05/01 01:56:12;;;;;;;3.78;3.47;;;20.10;58.60;;;;;;4993571;28;20273;-69
2022/05/01 01:58:41;;;;;;;4.00;3.60;;;20.20;58.70;;;;;;4977081;28;20217;-69
2022/05/01 02:01:10;;;;;;;4.13;3.83;;;20.20;58.70;;;;;;4977251;28;20217;-69
2022/05/01 02:03:36;;;;;;;3.40;2.97;;;20.20;58.70;;;;;;4977336;28;20192;-68
2022/05/01 02:06:06;;;;;;;2.92;2.72;;;20.20;58.70;;;;;;4993331;28;20287;-69
2022/05/01 02:08:36;;;;;;;2.58;2.40;;;20.10;58.50;;;;;;4976937;28;20307;-68
2022/05/01 02:11:05;;;;;;;2.75;2.30;;;20.20;58.70;;;;;;4993064;28;20232;-68
2022/05/01 02:13:31;;;;;;;2.30;2.20;;;20.10;58.60;;;;;;4993359;28;20196;-69
2022/05/01 02:15:57;;;;;;;2.40;2.20;;;20.10;58.60;;;;;;4994333;28;20187;-69
2022/05/01 02:18:23;;;;;;;2.35;2.25;;;20.10;58.60;;;;;;4992959;28;20188;-68
2022/05/01 02:23:33;;;;;;;2.33;2.13;;;20.20;58.60;;;;;;4993117;28;20671;-68
2022/05/01 02:25:59;;;;;;;2.60;2.40;;;20.10;58.50;;;;;;4992997;28;20181;-69
2022/05/01 02:28:26;;;;;;;2.80;2.60;;;20.20;58.60;;;;;;4992635;28;20753;-69
2022/05/01 02:30:52;;;;;;;2.67;2.47;;;20.10;58.50;;;;;;4994000;28;20212;-69
2022/05/01 02:33:20;;;;;;;3.08;2.88;;;20.10;58.40;;;;;;4992938;28;20190;-69
2022/05/01 02:35:47;;;;;;;3.70;3.40;;;20.10;58.50;;;;;;4993051;28;20276;-69
2022/05/01 02:38:12;;;;;;;3.90;3.53;;;20.10;58.50;;;;;;4992768;28;20645;-69
2022/05/01 02:40:38;;;;;;;3.97;3.67;;;20.10;58.40;;;;;;4992919;28;20212;-69
2022/05/01 02:43:05;;;;;;;3.63;3.33;;;20.10;58.40;;;;;;4992999;28;20216;-69
2022/05/01 02:45:31;;;;;;;3.85;3.55;;;20.10;58.40;;;;;;4992837;28;20189;-69
2022/05/01 02:47:57;;;;;;;4.22;3.83;;;20.10;58.40;;;;;;4992512;28;20219;-69
2022/05/01 02:50:24;;;;;;;4.22;2.95;;;20.10;58.40;;;;;;4992700;28;20181;-69
2022/05/01 02:52:54;;;;;;;2.80;2.60;;;20.10;59.00;;;;;;4992890;28;20165;-69
2022/05/01 02:55:20;;;;;;;2.45;2.25;;;20.10;58.40;;;;;;4992715;28;20177;-69
2022/05/01 02:57:47;;;;;;;2.10;2.00;;;20.10;58.40;;;;;;4993510;28;20236;-69
2022/05/01 03:00:17;;;;;;;2.13;2.00;;;20.00;58.30;;;;;;4992411;28;20264;-68
2022/05/01 03:02:49;;;;;;;2.20;2.10;;;20.10;58.40;;;;;;4992368;28;20291;-69
2022/05/01 03:05:17;;;;;;;2.10;2.00;;;20.10;58.40;;;;;;4993490;28;20184;-69
2022/05/01 03:07:43;;;;;;;2.05;1.88;;;20.10;58.40;;;;;;4991923;28;20213;-69
2022/05/01 03:10:10;;;;;;;2.65;2.30;;;20.10;58.40;;;;;;4991893;28;20191;-69
2022/05/01 03:12:39;;;;;;;2.20;2.05;;;20.10;58.40;;;;;;4992103;28;20236;-69
2022/05/01 03:15:07;;;;;;;3.15;2.85;;;20.10;58.30;;;;;;4992128;28;20199;-69
2022/05/01 03:23:03;;;;;;;4.45;4.05;;;20.10;58.30;;;;;;4992083;28;20203;-69
2022/05/01 03:25:29;;;;;;;3.05;2.85;;;20.10;58.30;;;;;;4976001;28;20201;-69
2022/05/01 03:27:55;;;;;;;2.70;2.50;;;20.10;58.30;;;;;;4991747;28;20636;-69
2022/05/01 03:30:23;;;;;;;2.70;2.50;;;20.10;58.40;;;;;;4992212;28;20291;-69
2022/05/01 03:32:49;;;;;;;1.98;1.88;;;20.10;58.30;;;;;;4993133;28;20220;-69
2022/05/01 03:35:17;;;;;;;2.20;2.10;;;20.10;58.30;;;;;;4993417;28;20283;-69
2022/05/01 03:37:44;;;;;;;2.58;2.38;;;20.10;58.30;;;;;;4975412;28;20189;-69
2022/05/01 03:40:14;;;;;;;2.50;2.30;;;20.10;58.30;;;;;;4975581;28;20189;-70
2022/05/01 03:42:39;;;;;;;2.20;2.10;;;20.10;58.30;;;;;;5008234;28;20185;-69
2022/05/01 03:45:06;;;;;;;2.78;2.50;;;20.10;58.30;;;;;;4975523;28;20188;-69
2022/05/01 03:47:34;;;;;;;2.25;2.15;;;20.10;58.30;;;;;;4991783;28;20216;-69
2022/05/01 03:50:00;;;;;;;2.60;2.40;;;20.10;58.30;;;;;;4992021;28;20189;-68
2022/05/01 03:52:26;;;;;;;3.03;2.83;;;20.10;58.30;;;;;;4991798;28;20208;-69
2022/05/01 03:54:52;;;;;;;3.50;3.20;;;20.10;58.30;;;;;;4991501;28;20185;-69
2022/05/01 03:57:18;;;;;;;4.18;3.83;;;20.10;58.20;;;;;;5007764;28;20211;-69
2022/05/01 03:59:43;;;;;;;4.03;3.72;;;20.10;58.30;;;;;;4991598;28;20193;-69
2022/05/01 04:02:15;;;;;;;3.35;3.10;;;20.10;58.30;;;;;;5042472;22;20710;-71
2022/05/01 04:04:43;;;;;;;4.43;4.07;;;20.10;58.30;;;;;;5014038;28;20609;-71
2022/05/01 04:07:09;;;;;;;4.38;4.00;;;20.10;58.30;;;;;;5030245;28;20222;-71
2022/05/01 04:09:36;;;;;;;3.80;3.50;;;20.10;58.20;;;;;;5030500;28;20187;-70
2022/05/01 04:12:04;;;;;;;4.28;3.90;;;20.10;58.20;;;;;;5043647;28;20571;-71
2022/05/01 04:14:32;;;;;;;2.95;2.75;;;20.10;58.20;;;;;;5010748;28;20251;-70
2022/05/01 04:16:59;;;;;;;2.40;2.20;;;20.00;58.20;;;;;;5010420;28;20184;-71
2022/05/01 04:19:31;;;;;;;2.28;2.08;;;20.10;58.30;;;;;;4994168;28;20199;-70
2022/05/01 04:21:57;;;;;;;2.25;2.13;;;20.10;58.20;;;;;;5014675;28;20234;-70
2022/05/01 04:24:24;;;;;;;3.65;2.47;;;20.10;58.20;;;;;;5014385;28;20636;-71
2022/05/01 04:26:49;;;;;;;2.17;2.08;;;20.10;58.20;;;;;;5015483;28;20663;-71
2022/05/01 04:32:00;;;;;;;2.70;2.50;;;20.10;58.10;;;;;;5030644;28;20206;-71
2022/05/01 04:34:26;;;;;;;2.58;2.33;;;20.10;58.20;;;;;;5015405;28;20180;-71
2022/05/01 04:36:51;;;;;;;3.25;3.05;;;20.10;58.20;;;;;;5013825;28;20180;-70
2022/05/01 04:39:17;;;;;;;4.18;3.78;;;20.10;58.20;;;;;;5014266;28;20188;-71
2022/05/01 04:41:43;;;;;;;4.20;3.80;;;20.10;58.10;;;;;;5014267;28;20236;-71
2022/05/01 04:44:10;;;;;;;4.88;4.38;;;20.00;58.10;;;;;;5014040;28;20670;-70
2022/05/01 04:46:36;;;;;;;4.50;4.10;;;20.10;58.20;;;;;;5015074;28;20314;-70
2022/05/01 04:49:03;;;;;;;4.40;4.00;;;20.10;58.20;;;;;;5013919;28;20192;-71
2022/05/01 04:51:28;;;;;;;5.22;4.72;;;20.10;58.20;;;;;;5013942;28;20702;-71
2022/05/01 04:53:54;;;;;;;5.18;4.72;;;20.00;58.20;;;;;;5014041;28;20188;-71
2022/05/01 04:59:07;;;;;;;3.20;2.50;;;20.10;58.20;;;;;;5030116;28;20234;-71
2022/05/01 05:01:35;;;;;;;2.63;2.42;;;20.10;58.20;;;;;;5014717;28;20207;-71
2022/05/01 05:04:03;;;;;;;2.40;2.20;;;20.10;58.20;;;;;;5013680;28;20184;-71
2022/05/01 05:06:30;;;;;;;2.65;2.40;;;20.10;58.20;;;;;;4997099;28;20215;-71
2022/05/01 05:11:41;;;;;;;2.40;2.20;;;20.10;58.20;;;;;;5029834;28;20266;-71
2022/05/01 05:14:06;;;;;;;2.70;2.50;;;20.10;58.20;;;;;;5013464;28;20192;-71
2022/05/01 05:16:33;;;;;;;3.40;3.10;;;20.10;58.20;;;;;;5013597;28;20176;-71
2022/05/01 05:18:58;;;;;;;3.80;3.50;;;20.10;58.20;;;;;;5013436;28;20184;-71
2022/05/01 05:21:24;;;;;;;4.55;4.15;;;20.10;58.10;;;;;;5010285;28;20192;-71
2022/05/01 05:23:50;;;;;;;4.38;4.00;;;20.10;58.20;;;;;;5013375;28;20203;-70
2022/05/01 05:26:16;;;;;;;3.97;3.67;;;20.10;58.20;;;;;;5013147;28;20188;-71
2022/05/01 05:28:41;;;;;;;4.80;4.40;;;20.10;58.20;;;;;;5012769;28;20223;-71
2022/05/01 05:31:07;;;;;;;3.60;3.30;;;20.10;58.20;;;;;;5012653;28;20204;-70
2022/05/01 05:33:33;;;;;;;4.80;4.30;;;20.00;58.10;;;;;;5012733;28;20180;-71
2022/05/01 05:35:58;;;;;;;5.03;4.43;;;20.10;58.20;;;;;;5013208;28;20184;-71
2022/05/01 05:38:24;;;;;;;4.03;3.72;;;20.10;58.20;;;;;;5013027;28;20192;-71
2022/05/01 05:40:50;;;;;;;4.80;3.80;;;20.10;58.20;;;;;;5014359;28;20188;-71
2022/05/01 05:43:16;;;;;;;3.55;3.25;;;20.10;58.20;;;;;;5012828;28;20192;-71
2022/05/01 05:45:41;;;;;;;3.17;2.88;;;20.10;58.20;;;;;;5013151;28;20196;-71
2022/05/01 05:48:07;;;;;;;2.72;2.50;;;20.10;58.20;;;;;;5012370;28;20220;-71
2022/05/01 05:50:33;;;;;;;2.70;2.50;;;20.10;58.10;;;;;;5012761;28;20218;-71
2022/05/01 05:52:59;;;;;;;2.97;2.47;;;20.10;58.20;;;;;;5012632;28;20204;-70
2022/05/01 05:55:25;;;;;;;2.58;2.38;;;20.10;58.20;;;;;;5012827;28;20191;-70
2022/05/01 05:57:50;;;;;;;2.92;2.45;;;20.00;58.10;;;;;;5012457;28;20188;-71
2022/05/01 06:00:17;;;;;;;2.80;2.60;;;20.10;58.20;;;;;;5012932;28;20192;-70
2022/05/01 06:02:42;;;;;;;2.00;1.90;;;20.10;58.20;;;;;;5028325;28;20211;-71
2022/05/01 06:05:09;;;;;;;2.38;2.17;;;20.10;58.20;;;;;;5012358;28;20640;-70
2022/05/01 06:07:34;;;;;;;3.60;2.40;;;20.10;58.10;;;;;;5011826;28;20303;-70
2022/05/01 06:10:00;;;;;;;2.03;1.92;;;20.10;58.10;;;;;;5012022;28;20601;-71
2022/05/01 06:12:28;;;;;;;2.97;2.50;;;20.10;58.10;;;;;;5011989;28;20200;-70
2022/05/01 06:14:53;;;;;;;2.70;2.50;;;20.10;58.10;;;;;;5013136;28;20188;-70
2022/05/01 06:17:19;;;;;;;3.35;3.05;;;20.10;58.10;;;;;;5010356;28;20183;-71
2022/05/01 06:19:45;;;;;;;3.70;3.25;;;20.10;58.10;;;;;;5011800;28;20198;-71
2022/05/01 06:22:11;;;;;;;4.15;3.83;;;20.10;58.10;;;;;;5011611;28;20211;-71
2022/05/01 06:24:36;;;;;;;4.32;3.92;;;20.10;58.10;;;;;;5011050;28;20191;-71
2022/05/01 06:27:03;;;;;;;3.97;3.58;;;20.10;58.00;;;;;;5011355;28;20640;-71
2022/05/01 06:29:28;;;;;;;5.22;4.72;;;20.10;58.10;;;;;;5012861;28;20195;-71
2022/05/01 06:31:54;;;;;;;4.30;3.92;;;20.10;58.00;;;;;;5011771;28;20204;-71
2022/05/01 06:34:20;;;;;;;4.22;3.83;;;20.10;58.00;;;;;;5011994;28;20184;-71
2022/05/01 06:36:46;;;;;;;4.00;3.63;;;20.10;58.10;;;;;;5011926;28;20188;-71
2022/05/01 06:39:12;;;;;;;4.97;4.07;;;20.10;58.00;;;;;;5011754;28;20188;-71
2022/05/01 06:41:38;;;;;;;3.40;3.10;;;20.10;58.00;;;;;;5011775;28;20212;-71
2022/05/01 06:44:04;;;;;;;3.20;2.90;;;20.10;58.00;;;;;;5010909;28;20208;-71
2022/05/01 06:46:30;;;;;;;5.15;2.97;;;20.10;58.00;;;;;;5011975;28;20246;-70
2022/05/01 06:48:56;;;;;;;2.85;2.65;;;20.10;58.00;;;;;;5011766;28;20184;-71
2022/05/01 06:51:22;;;;;;;2.72;1.90;;;20.10;58.00;;;;;;5011790;28;20207;-71
2022/05/01 06:53:47;;;;;;;2.20;2.10;;;20.10;58.00;;;;;;5011626;28;20219;-71
2022/05/01 06:56:13;;;;;;;2.63;2.42;;;20.10;58.00;;;;;;5011705;28;20245;-71
2022/05/01 06:58:39;;;;;;;2.42;2.22;;;20.10;58.00;;;;;;5011620;28;20184;-71
2022/05/01 07:01:07;;;;;;;2.53;2.33;;;20.10;58.00;;;;;;5011409;28;20203;-71
2022/05/01 07:03:34;;;;;;;2.72;2.10;;;20.10;58.00;;;;;;5012790;28;20588;-70
2022/05/01 07:06:02;;;;;;;2.33;1.85;;;20.10;58.00;;;;;;5011643;28;20188;-70
2022/05/01 07:08:29;;;;;;;2.22;2.03;;;20.10;57.90;;;;;;5011251;28;20224;-71
2022/05/01 07:10:54;;;;;;;2.58;2.38;;;20.10;57.90;;;;;;5012392;28;20262;-70
2022/05/01 07:13:20;;;;;;;2.78;2.58;;;20.20;58.00;;;;;;5011318;28;20252;-70
2022/05/01 07:15:46;;;;;;;3.15;2.95;;;20.20;57.90;;;;;;5011369;28;20180;-71
2022/05/01 07:18:12;;;;;;;3.22;3.03;;;20.10;57.90;;;;;;5012598;28;20183;-71
2022/05/01 07:20:38;;;;;;;4.30;3.50;;;20.20;57.90;;;;;;5011003;28;20234;-71
2022/05/01 07:23:06;;;;;;;3.72;3.42;;;20.10;57.80;;;;;;5009853;28;20199;-70
2022/05/01 07:25:32;;;;;;;4.35;3.95;;;20.10;57.80;;;;;;5010531;28;20192;-71
2022/05/01 07:27:58;;;;;;;4.80;3.75;;;20.20;57.90;;;;;;5011804;28;20215;-71
2022/05/01 07:30:24;;;;;;;4.60;4.20;;;20.10;57.80;;;;;;5000561;28;20189;-71
2022/05/01 07:32:50;;;;;;;4.03;3.63;;;20.10;58.40;;;;;;4993630;28;20247;-71
2022/05/01 07:35:15;;;;;;;3.60;3.30;;;20.10;57.80;;;;;;5012322;28;20187;-71
2022/05/01 07:37:41;;;;;;;3.50;3.20;;;20.20;57.90;;;;;;5010358;28;20200;-71
2022/05/01 07:40:09;;;;;;;3.55;3.25;;;20.10;57.80;;;;;;5011390;28;20188;-70
2022/05/01 07:42:34;;;;;;;2.83;2.63;;;20.10;57.80;;;;;;5011254;28;20210;-70
2022/05/01 07:45:01;;;;;;;2.60;2.40;;;20.10;57.80;;;;;;5010283;28;20184;-71
2022/05/01 07:47:26;;;;;;;2.53;2.20;;;20.20;57.90;;;;;;5010097;28;20211;-71
2022/05/01 07:49:52;;;;;;;2.50;2.30;;;20.10;57.90;;;;;;5010485;28;20644;-71
2022/05/01 07:52:18;;;;;;;2.92;2.28;;;20.10;57.90;;;;;;5010172;28;20204;-71
2022/05/01 07:54:44;;;;;;;2.45;2.25;;;20.20;58.10;;;;;;5012702;28;20184;-71
2022/05/01 07:57:10;;;;;;;2.05;1.95;;;20.20;58.10;;;;;;5014399;28;20571;-71
2022/05/01 07:59:35;;;;;;;4.47;2.33;;;20.20;58.10;;;;;;5014515;28;20180;-71
2022/05/01 08:02:01;;;;;;;2.22;2.03;;;20.20;58.10;;;;;;5014657;28;20212;-71
2022/05/01 08:04:28;;;;;;;4.50;2.58;;;20.20;58.10;;;;;;5014729;28;20650;-71
2022/05/01 08:06:59;;;;;;;2.83;2.63;;;20.20;58.10;;;;;;5031054;28;20306;-71
2022/05/01 08:09:26;;;;;;;3.13;2.40;;;20.20;58.10;;;;;;5031101;28;20187;-71
2022/05/01 08:11:52;;;;;;;2.65;2.45;;;20.20;58.10;;;;;;5014581;28;20203;-71
2022/05/01 08:14:20;;;;;;;3.17;2.88;;;20.20;58.20;;;;;;5014546;28;20184;-71
2022/05/01 08:16:46;;;;;;;7.35;3.28;;;20.20;58.20;;;;;;5014948;28;20215;-71
2022/05/01 08:21:56;;;;;;;6.80;3.40;;;20.20;58.30;;;;;;5031125;28;20294;-71
2022/05/01 08:24:22;;;;;;;5.00;3.80;;;20.20;58.30;;;;;;5011277;28;20275;-70
2022/05/01 08:26:48;;;;;;;4.50;2.88;;;20.20;58.20;;;;;;5014094;28;20267;-71
2022/05/01 08:29:15;;;;;;;4.35;3.10;;;20.20;58.10;;;;;;5015346;28;20747;-71
2022/05/01 08:31:45;;;;;;;6.63;3.00;;;20.20;58.20;;;;;;5014135;28;20204;-71
2022/05/01 08:34:11;;;;;;;5.05;2.80;;;20.20;58.40;;;;;;5015357;28;20225;-71
2022/05/01 08:36:38;;;;;;;6.30;2.72;;;20.20;58.60;;;;;;5014267;28;20188;-71
2022/05/01 08:39:05;;;;;;;3.30;2.33;;;20.30;59.10;;;;;;5014043;28;20195;-71
2022/05/01 08:41:32;;;;;;;4.82;2.60;;;20.30;59.20;;;;;;5030567;28;20232;-71
2022/05/01 08:44:00;;;;;;;3.30;2.40;;;20.30;59.30;;;;;;5015194;28;20180;-70
2022/05/01 08:47:12;;;;;;;6.53;2.90;;;20.30;59.50;;;;;;5013952;28;20188;-71
2022/05/01 08:49:40;;;;;;;5.97;3.47;;;20.30;59.50;;;;;;5015209;28;20207;-71
2022/05/01 08:52:10;;;;;;;8.05;3.72;;;20.30;59.60;;;;;;5013776;28;20208;-71
2022/05/01 08:54:36;;;;;;;3.88;3.58;;;20.30;59.60;;;;;;5013789;28;20184;-71
2022/05/01 08:57:03;;;;;;;5.35;3.55;;;20.30;59.60;;;;;;5013658;28;20176;-71
2022/05/01 08:59:31;;;;;;;5.45;2.67;;;20.30;59.40;;;;;;5014996;28;20270;-71
2022/05/01 09:01:58;;;;;;;3.63;2.72;;;20.30;59.60;;;;;;5046380;28;20211;-71
2022/05/01 09:04:25;;;;;;;5.05;2.40;;;20.30;59.60;;;;;;4996974;28;20180;-71
2022/05/01 09:06:53;;;;;;;4.30;2.65;;;20.30;59.50;;;;;;5012208;28;20715;-71
2022/05/01 09:09:23;;;;;;;4.07;2.60;;;20.30;59.50;;;;;;4996614;28;20191;-71
2022/05/01 09:14:40;;;;;;;4.95;1.95;;;20.30;59.50;;;;;;5012251;28;20271;-71
2022/05/01 09:17:15;;;;;;;5.88;2.67;;;20.40;59.80;;;;;;5013105;28;20188;-71
2022/05/01 09:19:48;;;;;;;3.97;2.70;;;20.40;59.80;;;;;;5013392;28;20738;-71
2022/05/01 09:22:19;;;;;;;4.90;2.80;;;20.40;59.70;;;;;;5011742;28;20207;-71
2022/05/01 09:24:45;;;;;;;4.35;2.92;;;20.40;59.70;;;;;;4995717;28;20181;-71
2022/05/01 09:27:32;;;;;;;4.13;2.72;;;20.40;59.60;;;;;;5026102;28;20695;-71
2022/05/01 09:30:20;;;;;;;3.00;2.75;;;20.40;59.60;;;;;;4988704;28;20184;-71
2022/05/01 09:32:48;;;;;;;2.47;2.28;;;20.40;59.60;;;;;;5013041;28;20199;-72
2022/05/01 09:35:34;;;;;;;2.95;2.25;;;20.40;59.60;;;;;;5013178;28;20179;-71
2022/05/01 09:38:21;;;;;;;3.40;2.60;;;20.40;59.50;;;;;;5012742;28;20188;-72
2022/05/01 09:40:54;;;;;;;3.40;2.25;;;20.40;59.40;;;;;;5013061;28;20259;-71
2022/05/01 09:43:43;;;;;;;4.15;2.42;;;20.40;59.40;;;;;;5013084;28;20192;-71
2022/05/01 09:46:29;;;;;;;4.60;2.53;;;20.40;59.40;;;;;;5013143;28;20267;-71
2022/05/01 09:49:13;;;;;;;5.43;2.70;;;20.40;59.50;;;;;;5014585;28;20203;-71
2022/05/01 09:51:43;;;;;;;5.72;2.58;;;20.40;60.10;;;;;;5013143;28;20211;-71
2022/05/01 09:54:17;;;;;;;4.28;2.47;;;20.40;59.40;;;;;;5013039;28;20180;-71
2022/05/01 09:56:48;;;;;;;4.20;2.45;;;20.40;59.40;;;;;;5013258;28;20658;-71
2022/05/01 09:59:16;;;;;;;6.85;2.63;;;20.40;59.40;;;;;;5012707;28;20211;-71
2022/05/01 10:02:05;;;;;;;5.15;2.60;;;20.40;59.30;;;;;;5041096;22;20235;-70
2022/05/01 10:04:33;;;;;;;5.18;2.53;;;20.40;59.40;;;;;;5032840;28;20225;-69
2022/05/01 10:07:01;;;;;;;4.22;2.55;;;20.40;59.30;;;;;;5032675;28;20215;-69
2022/05/01 10:09:33;;;;;;;3.13;2.55;;;20.40;59.30;;;;;;5032652;28;20182;-69
2022/05/01 10:12:10;;;;;;;3.53;2.38;;;20.40;59.10;;;;;;5029406;28;20603;-69
2022/05/01 10:14:36;;;;;;;4.75;2.85;;;20.40;59.10;;;;;;5013236;28;20172;-70
2022/05/01 10:17:03;;;;;;;3.10;2.50;;;20.40;59.00;;;;;;4996352;28;20579;-70
2022/05/01 10:19:31;;;;;;;4.93;2.65;;;20.40;59.10;;;;;;5029062;28;20196;-70
2022/05/01 10:22:00;;;;;;;5.93;2.58;;;20.40;59.00;;;;;;5012556;28;20208;-70
2022/05/01 10:24:28;;;;;;;3.30;2.20;;;20.40;59.00;;;;;;4996353;28;20575;-70
2022/05/01 10:27:24;;;;;;;2.90;2.33;;;20.40;59.00;;;;;;4996552;28;20186;-69
2022/05/01 10:33:46;;;;;;;6.07;3.92;;;20.10;54.00;;;;;;5028878;28;20286;-69
2022/05/01 10:36:20;;;;;;;3.70;3.30;;;19.50;51.60;;;;;;5013181;28;20196;-69
2022/05/01 10:39:09;;;;;;;6.82;3.47;;;19.70;54.30;;;;;;5013480;28;20171;-69
2022/05/01 10:41:44;;;;;;;7.70;3.95;;;20.00;57.50;;;;;;5012561;28;20218;-69
2022/05/01 10:44:34;;;;;;;6.47;3.60;;;20.10;57.60;;;;;;5012616;28;20183;-69
2022/05/01 10:47:35;;;;;;;5.43;3.47;;;20.20;57.70;;;;;;5012352;28;20270;-68
2022/05/01 10:50:11;;;;;;;3.63;3.20;;;20.30;57.60;;;;;;5012296;28;20290;-69
2022/05/01 10:53:03;;;;;;;4.18;3.53;;;20.40;57.90;;;;;;5012285;28;20231;-69
2022/05/01 10:55:48;;;;;;;4.07;3.50;;;20.40;57.40;;;;;;5012082;28;20173;-69
2022/05/01 10:58:26;;;;;;;7.68;3.60;;;20.40;57.30;;;;;;5028420;28;20259;-68
2022/05/01 11:00:57;;;;;;;5.15;3.50;;;20.40;57.10;;;;;;5009853;28;20184;-70
2022/05/01 11:03:32;;;;;;;3.53;3.20;;;20.40;57.10;;;;;;5003618;28;20216;-67
2022/05/01 11:06:04;;;;;;;5.18;3.53;;;20.40;57.00;;;;;;5011889;28;20651;-70
2022/05/01 11:08:36;;;;;;;6.13;3.40;;;20.40;57.10;;;;;;5012719;28;20212;-69
2022/05/01 11:11:05;;;;;;;5.25;3.28;;;20.40;57.30;;;;;;5012020;28;20188;-68
2022/05/01 11:13:37;;;;;;;4.40;3.40;;;20.40;57.30;;;;;;5012087;28;20212;-69
2022/05/01 11:16:07;;;;;;;4.00;3.00;;;20.40;57.40;;;;;;5012987;28;20326;-69
2022/05/01 11:18:35;;;;;;;4.28;3.28;;;20.40;57.20;;;;;;5012879;28;20177;-69
2022/05/01 11:21:19;;;;;;;4.05;2.95;;;20.40;57.20;;;;;;5011785;28;20192;-69
2022/05/01 11:23:47;;;;;;;7.38;3.20;;;20.50;57.30;;;;;;4995482;28;20191;-69
2022/05/01 11:26:17;;;;;;;4.28;3.33;;;20.50;57.40;;;;;;5012000;28;20266;-69
2022/05/01 11:28:54;;;;;;;4.13;2.80;;;20.50;57.30;;;;;;5011112;28;20225;-69
2022/05/01 11:31:38;;;;;;;3.30;2.90;;;20.50;57.40;;;;;;5012422;28;20395;-69
2022/05/01 11:34:16;;;;;;;3.38;2.83;;;20.50;57.20;;;;;;5011456;28;20191;-69
2022/05/01 11:36:57;;;;;;;4.43;3.08;;;20.50;57.40;;;;;;5011785;28;20184;-69
2022/05/01 11:39:56;;;;;;;3.22;2.75;;;20.50;57.40;;;;;;5011503;28;20251;-69
2022/05/01 11:42:29;;;;;;;4.13;3.10;;;20.50;57.30;;;;;;4989981;28;20239;-70
2022/05/01 11:45:00;;;;;;;5.85;3.38;;;20.50;57.20;;;;;;5011280;28;20275;-69
2022/05/01 11:47:30;;;;;;;5.47;2.95;;;20.50;56.90;;;;;;5012676;28;20311;-70
2022/05/01 11:49:56;;;;;;;3.40;2.92;;;20.50;57.00;;;;;;5011610;28;20189;-69
2022/05/01 11:52:24;;;;;;;3.20;2.65;;;20.50;57.00;;;;;;5011349;28;20209;-69
2022/05/01 11:54:54;;;;;;;4.80;2.72;;;20.50;56.90;;;;;;5011456;28;20184;-69
2022/05/01 12:03:13;;;;;;;3.25;2.92;;;20.50;56.80;;;;;;5011055;28;20306;-69
2022/05/01 12:05:47;;;;;;;3.92;3.08;;;20.50;57.10;;;;;;5011160;28;20311;-68
2022/05/01 12:08:14;;;;;;;3.92;2.60;;;20.50;57.00;;;;;;5010903;28;20284;-69
2022/05/01 12:10:45;;;;;;;3.58;2.75;;;20.50;57.00;;;;;;4994868;28;20234;-70
2022/05/01 12:13:25;;;;;;;3.10;2.80;;;20.50;56.80;;;;;;5010516;28;20209;-70
2022/05/01 12:15:52;;;;;;;4.05;2.90;;;20.50;57.00;;;;;;5004376;28;20283;-69
2022/05/01 12:18:19;;;;;;;5.50;3.38;;;20.50;56.60;;;;;;5010572;28;20195;-70
2022/05/01 12:20:46;;;;;;;5.93;3.28;;;20.50;56.40;;;;;;5011053;28;20254;-69
2022/05/01 12:23:21;;;;;;;3.92;2.95;;;20.50;56.60;;;;;;5011047;28;20219;-70
2022/05/01 12:25:50;;;;;;;4.00;2.85;;;20.50;56.50;;;;;;5007334;28;20214;-69
2022/05/01 12:28:21;;;;;;;3.28;2.75;;;20.50;56.70;;;;;;5011056;28;20684;-69
2022/05/01 12:30:50;;;;;;;4.28;2.83;;;20.50;56.70;;;;;;5011053;28;20212;-69
2022/05/01 12:33:26;;;;;;;5.97;3.45;;;20.50;56.70;;;;;;5010212;28;20590;-69
2022/05/01 12:36:01;;;;;;;4.72;2.53;;;20.50;57.00;;;;;;5009838;28;20276;-69
2022/05/01 12:38:29;;;;;;;5.32;2.70;;;20.50;56.80;;;;;;5024910;28;20187;-69
2022/05/01 12:43:56;;;;;;;4.75;2.67;;;20.50;57.10;;;;;;5012430;28;20188;-70
2022/05/01 12:46:27;;;;;;;4.90;2.83;;;20.50;56.90;;;;;;5012407;28;20192;-69
2022/05/01 12:48:53;;;;;;;4.93;3.10;;;20.50;57.10;;;;;;5011809;28;20243;-69
2022/05/01 12:51:20;;;;;;;6.05;3.03;;;20.50;57.10;;;;;;5012076;28;20585;-69
2022/05/01 12:53:46;;;;;;;3.60;2.47;;;20.50;57.20;;;;;;4995701;28;20191;-69
2022/05/01 12:56:20;;;;;;;4.65;2.83;;;20.50;57.20;;;;;;4995710;28;20238;-70
2022/05/01 12:58:46;;;;;;;3.75;3.20;;;20.50;57.20;;;;;;5012126;28;20208;-67
2022/05/01 13:01:29;;;;;;;4.65;2.58;;;20.50;57.20;;;;;;5011913;28;20211;-69
2022/05/01 13:03:55;;;;;;;4.10;2.78;;;20.60;57.40;;;;;;5013135;28;20259;-69
2022/05/01 13:06:23;;;;;;;4.13;2.72;;;20.60;57.30;;;;;;5011649;28;20192;-69
2022/05/01 13:08:51;;;;;;;3.72;2.72;;;20.60;57.40;;;;;;5011364;28;20216;-69
2022/05/01 13:11:30;;;;;;;3.42;2.58;;;20.50;57.40;;;;;;5011591;28;20188;-69
2022/05/01 13:14:10;;;;;;;6.35;2.90;;;20.50;57.30;;;;;;5012482;28;20246;-68
2022/05/01 13:16:44;;;;;;;3.30;3.00;;;20.50;57.30;;;;;;5013778;28;20618;-70
2022/05/01 13:19:15;;;;;;;3.00;2.28;;;20.50;57.50;;;;;;5014032;28;20199;-68
2022/05/01 13:21:49;;;;;;;4.00;3.05;;;20.50;57.50;;;;;;5013779;28;20215;-70
2022/05/01 13:24:26;;;;;;;3.72;2.83;;;20.50;57.30;;;;;;5015037;28;20175;-70
2022/05/01 13:26:52;;;;;;;5.32;3.17;;;20.50;57.50;;;;;;4997361;28;20210;-70
2022/05/01 13:29:18;;;;;;;5.22;3.40;;;20.50;57.60;;;;;;5013427;28;20214;-70
2022/05/01 13:31:47;;;;;;;5.53;3.25;;;20.50;57.50;;;;;;5013454;28;20203;-69
2022/05/01 13:34:13;;;;;;;4.57;3.17;;;20.50;57.50;;;;;;4997552;28;20184;-70
2022/05/01 13:36:39;;;;;;;5.68;2.85;;;20.50;57.60;;;;;;5013801;28;20254;-69
2022/05/01 13:39:08;;;;;;;7.50;3.33;;;20.50;57.50;;;;;;5014479;28;20270;-66